ADDS METAR Data

Data at: 0743 UTC 24 Oct 2017

METAR for:KGHG (Marshfield Muni, MA, US)
Text:KGHG 240735Z AUTO 17005KT 10SM SCT070 19/17 A3009 RMK AO2
Temperature: 19.0°C ( 66°F)
Dewpoint: 17.0°C ( 63°F) [RH = 88%]
Pressure (altimeter):30.09 inches Hg (1019.0 mb)
Winds:from the S (170 degrees) at 6 MPH (5 knots; 2.6 m/s)
Visibility:10 or more sm (16+ km)
Ceiling:at least 12,000 feet AGL
Clouds: scattered clouds at 7000 feet AGL
QC Flag:automated observation with no human augmentation